createdAt,value
2022-11-14T00:00:55.936Z,7.63
2022-11-14T00:03:22.667Z,7.90
2022-11-14T00:05:49.369Z,7.57
2022-11-14T00:08:22.444Z,8.60
2022-11-14T00:10:50.803Z,7.57
2022-11-14T00:13:19.506Z,7.47
2022-11-14T00:15:50.267Z,7.40
2022-11-14T00:18:17.638Z,7.93
2022-11-14T00:20:44.736Z,7.63
2022-11-14T00:23:11.404Z,7.73
2022-11-14T00:25:38.040Z,7.33
2022-11-14T00:28:04.894Z,6.93
2022-11-14T00:30:31.707Z,7.50
2022-11-14T00:32:58.346Z,7.17
2022-11-14T00:35:25.425Z,7.73
2022-11-14T00:37:52.152Z,7.37
2022-11-14T00:40:18.901Z,7.00
2022-11-14T00:42:46.032Z,7.47
2022-11-14T00:45:12.898Z,7.20
2022-11-14T00:47:40.149Z,7.00
2022-11-14T00:50:07.516Z,7.83
2022-11-14T00:52:34.170Z,7.37
2022-11-14T00:55:01.289Z,6.90
2022-11-14T00:57:30.827Z,7.50
2022-11-14T00:59:57.584Z,6.67
2022-11-14T01:02:24.872Z,7.30
2022-11-14T01:04:51.600Z,7.03
2022-11-14T01:07:18.438Z,7.10
2022-11-14T01:09:45.096Z,6.87
2022-11-14T01:12:11.815Z,6.73
2022-11-14T01:14:40.035Z,6.93
2022-11-14T01:17:07.034Z,6.80
2022-11-14T01:19:33.772Z,6.40
2022-11-14T01:22:05.925Z,7.10
2022-11-14T01:24:34.329Z,6.63
2022-11-14T01:27:01.657Z,6.53
2022-11-14T01:29:28.963Z,6.70
2022-11-14T01:31:56.116Z,7.00
2022-11-14T01:34:23.369Z,7.33
2022-11-14T01:36:50.084Z,6.30
2022-11-14T01:39:16.804Z,7.07
2022-11-14T01:41:43.896Z,6.93
2022-11-14T01:44:18.219Z,7.13
2022-11-14T01:46:55.271Z,6.40
2022-11-14T01:49:26.976Z,7.50
2022-11-14T01:52:02.136Z,7.20
2022-11-14T01:54:41.563Z,6.47
2022-11-14T01:57:10.239Z,6.63
2022-11-14T01:59:42.531Z,7.10
2022-11-14T02:02:18.948Z,6.53
2022-11-14T02:04:50.947Z,6.80
2022-11-14T02:07:18.208Z,6.47
2022-11-14T02:09:48.475Z,7.10
2022-11-14T02:12:18.164Z,6.20
2022-11-14T02:14:47.702Z,6.90
2022-11-14T02:17:31.929Z,6.17
2022-11-14T02:20:11.523Z,6.80
2022-11-14T02:22:42.440Z,7.00
2022-11-14T02:25:10.621Z,7.23
2022-11-14T02:27:39.396Z,6.83
2022-11-14T02:30:10.139Z,6.97
2022-11-14T02:33:08.974Z,6.50
2022-11-14T02:35:24.314Z,6.87
2022-11-14T02:37:50.979Z,6.77
2022-11-14T02:40:18.067Z,6.63
2022-11-14T02:42:44.760Z,6.97
2022-11-14T02:45:12.611Z,6.63
2022-11-14T02:47:39.650Z,6.53
2022-11-14T02:50:06.834Z,6.40
2022-11-14T02:52:33.477Z,6.80
2022-11-14T02:55:00.597Z,6.90
2022-11-14T02:57:27.223Z,6.77
2022-11-14T02:59:54.288Z,6.70
2022-11-14T03:02:21.331Z,6.57
2022-11-14T03:04:48.374Z,6.73
2022-11-14T03:07:15.541Z,6.27
2022-11-14T03:09:42.254Z,6.80
2022-11-14T03:12:09.666Z,6.93
2022-11-14T03:14:36.732Z,5.80
2022-11-14T03:17:03.452Z,6.40
2022-11-14T03:19:30.072Z,6.43
2022-11-14T03:21:56.698Z,5.80
2022-11-14T03:24:23.327Z,6.00
2022-11-14T03:26:50.373Z,6.50
2022-11-14T03:29:17.071Z,6.03
2022-11-14T03:31:43.728Z,6.70
2022-11-14T03:34:10.812Z,6.17
2022-11-14T03:36:37.764Z,5.93
2022-11-14T03:39:05.291Z,5.67
2022-11-14T03:41:32.312Z,6.30
2022-11-14T03:43:58.992Z,6.60
2022-11-14T03:46:25.617Z,6.23
2022-11-14T03:48:52.324Z,6.17
2022-11-14T03:51:19.393Z,6.40
2022-11-14T03:53:46.519Z,5.87
2022-11-14T03:56:13.586Z,6.30
2022-11-14T03:58:40.233Z,5.97
2022-11-14T04:01:07.380Z,5.77
2022-11-14T04:03:34.050Z,5.93
2022-11-14T04:06:01.098Z,5.47
2022-11-14T04:08:28.079Z,5.90
2022-11-14T04:10:55.010Z,6.33
2022-11-14T04:13:22.038Z,5.43
2022-11-14T04:15:57.953Z,5.77
2022-11-14T04:18:26.414Z,5.40
2022-11-14T04:20:53.336Z,5.20
2022-11-14T04:23:20.389Z,5.30
2022-11-14T04:25:47.411Z,5.33
2022-11-14T04:28:14.543Z,5.97
2022-11-14T04:30:42.095Z,5.50
2022-11-14T04:33:08.771Z,5.40
2022-11-14T04:35:35.418Z,5.20
2022-11-14T04:38:02.245Z,5.43
2022-11-14T04:40:29.360Z,5.67
2022-11-14T04:42:56.006Z,5.40
2022-11-14T04:45:23.125Z,5.53
2022-11-14T04:47:49.810Z,5.30
2022-11-14T04:50:16.487Z,5.63
2022-11-14T04:52:43.680Z,5.63
2022-11-14T04:55:10.399Z,5.57
2022-11-14T04:57:37.115Z,5.80
2022-11-14T05:00:05.403Z,5.30
2022-11-14T05:02:32.954Z,5.30
2022-11-14T05:05:00.020Z,5.40
2022-11-14T05:07:27.161Z,5.40
2022-11-14T05:09:54.238Z,5.03
2022-11-14T05:12:21.273Z,5.60
2022-11-14T05:14:48.753Z,5.50
2022-11-14T05:17:15.465Z,5.43
2022-11-14T05:19:42.499Z,5.57
2022-11-14T05:22:09.546Z,5.53
2022-11-14T05:24:36.601Z,5.03
2022-11-14T05:27:03.396Z,5.40
2022-11-14T05:29:30.028Z,5.23
2022-11-14T05:31:58.012Z,5.13
2022-11-14T05:34:25.473Z,4.90
2022-11-14T05:36:52.158Z,5.30
2022-11-14T05:39:19.258Z,5.03
2022-11-14T05:41:45.974Z,5.40
2022-11-14T05:44:12.587Z,5.67
2022-11-14T05:46:39.711Z,6.27
2022-11-14T05:49:06.752Z,5.17
2022-11-14T05:51:33.789Z,5.90
2022-11-14T05:54:00.863Z,5.90
2022-11-14T05:56:28.029Z,6.23
2022-11-14T05:58:54.693Z,6.53
2022-11-14T06:01:21.485Z,5.73
2022-11-14T06:03:49.220Z,6.70
2022-11-14T06:06:18.177Z,6.03
2022-11-14T06:08:45.293Z,7.03
2022-11-14T06:11:14.804Z,7.33
2022-11-14T06:13:42.154Z,7.07
2022-11-14T06:16:14.621Z,6.47
2022-11-14T06:18:41.567Z,6.53
2022-11-14T06:21:13.817Z,6.40
2022-11-14T06:23:40.563Z,6.40
2022-11-14T06:26:20.912Z,6.70
2022-11-14T06:28:49.371Z,6.53
2022-11-14T06:31:16.926Z,6.03
2022-11-14T06:33:43.663Z,5.90
2022-11-14T06:36:11.150Z,6.23
2022-11-14T06:38:39.789Z,6.23
2022-11-14T06:41:07.206Z,6.20
2022-11-14T06:43:38.016Z,6.57
2022-11-14T06:46:05.865Z,6.10
2022-11-14T06:48:33.074Z,6.50
2022-11-14T06:51:00.939Z,6.93
2022-11-14T06:53:32.718Z,7.43
2022-11-14T06:56:01.797Z,6.43
2022-11-14T06:58:30.847Z,6.70
2022-11-14T07:01:02.849Z,7.20
2022-11-14T07:03:30.027Z,7.23
2022-11-14T07:06:03.824Z,7.10
2022-11-14T07:08:31.728Z,7.17
2022-11-14T07:11:06.102Z,47.70
2022-11-14T07:13:33.932Z,22.03
2022-11-14T07:16:01.179Z,15.83
2022-11-14T07:18:31.418Z,18.47
2022-11-14T07:21:03.700Z,25.10
2022-11-14T07:23:31.401Z,22.10
2022-11-14T07:26:09.622Z,7.53
2022-11-14T07:28:37.802Z,7.40
2022-11-14T07:31:06.309Z,7.13
2022-11-14T07:33:33.649Z,7.67
2022-11-14T07:36:00.412Z,6.77
2022-11-14T07:38:27.822Z,6.93
2022-11-14T07:41:06.346Z,7.63
2022-11-14T07:43:32.999Z,7.33
2022-11-14T07:46:01.178Z,7.47
2022-11-14T07:48:29.150Z,7.17
2022-11-14T07:51:03.799Z,7.83
2022-11-14T07:53:31.230Z,7.60
2022-11-14T07:56:03.070Z,7.83
2022-11-14T07:58:29.965Z,7.67
2022-11-14T08:00:57.274Z,8.50
2022-11-14T08:03:24.385Z,9.43
2022-11-14T08:06:04.193Z,9.33
2022-11-14T08:08:31.442Z,9.53
2022-11-14T08:10:59.427Z,9.80
2022-11-14T08:13:34.166Z,9.77
2022-11-14T08:16:12.771Z,9.60
2022-11-14T08:18:40.845Z,8.87
2022-11-14T08:21:07.933Z,9.80
2022-11-14T08:23:34.624Z,9.93
2022-11-14T08:26:01.256Z,9.87
2022-11-14T08:28:28.424Z,9.60
2022-11-14T08:31:04.784Z,10.20
2022-11-14T08:33:32.225Z,10.67
2022-11-14T08:36:06.931Z,11.23
2022-11-14T08:38:34.728Z,11.30
2022-11-14T08:41:01.830Z,11.77
2022-11-14T08:43:28.909Z,11.83
2022-11-14T08:46:05.934Z,12.57
2022-11-14T08:48:33.783Z,12.73
2022-11-14T08:51:05.680Z,12.70
2022-11-14T08:53:33.226Z,13.93
2022-11-14T08:56:00.960Z,13.97
2022-11-14T08:58:30.370Z,14.00
2022-11-14T09:01:06.301Z,14.73
2022-11-14T09:03:34.104Z,15.30
2022-11-14T09:06:01.277Z,15.60
2022-11-14T09:08:28.687Z,15.00
2022-11-14T09:10:56.034Z,14.33
2022-11-14T09:13:22.749Z,15.03
2022-11-14T09:15:49.507Z,14.80
2022-11-14T09:18:16.256Z,15.80
2022-11-14T09:20:42.965Z,16.27
2022-11-14T09:23:09.978Z,16.07
2022-11-14T09:25:37.250Z,15.70
2022-11-14T09:28:06.477Z,16.53
2022-11-14T09:30:34.069Z,16.67
2022-11-14T09:33:05.655Z,16.13
2022-11-14T09:35:37.774Z,15.60
2022-11-14T09:38:06.695Z,16.10
2022-11-14T09:40:59.557Z,15.67
2022-11-14T09:43:47.462Z,16.23
2022-11-14T09:46:24.624Z,14.97
2022-11-14T09:48:52.624Z,16.10
2022-11-14T09:51:25.494Z,15.10
2022-11-14T09:54:20.713Z,15.47
2022-11-14T09:56:47.413Z,14.87
2022-11-14T09:59:15.170Z,16.43
2022-11-14T10:01:49.254Z,14.93
2022-11-14T10:04:23.959Z,14.77
2022-11-14T10:07:18.042Z,15.03
2022-11-14T10:09:51.322Z,14.90
2022-11-14T10:12:20.666Z,15.20
2022-11-14T10:15:13.076Z,15.13
2022-11-14T10:18:25.210Z,15.43
2022-11-14T10:20:55.319Z,15.00
2022-11-14T10:24:00.674Z,14.97
2022-11-14T10:26:30.186Z,14.80
2022-11-14T10:29:24.130Z,14.80
2022-11-14T10:32:21.910Z,13.93
2022-11-14T10:35:04.651Z,15.83
2022-11-14T10:38:05.606Z,14.87
2022-11-14T10:40:47.881Z,15.00
2022-11-14T10:43:33.705Z,14.60
2022-11-14T10:46:05.677Z,15.93
2022-11-14T10:48:39.811Z,14.00
2022-11-14T10:51:30.521Z,14.37
2022-11-14T10:54:00.780Z,14.37
2022-11-14T10:56:27.492Z,14.47
2022-11-14T10:58:54.543Z,14.20
2022-11-14T11:01:35.255Z,15.37
2022-11-14T11:04:29.444Z,14.37
2022-11-14T11:07:06.978Z,13.93
2022-11-14T11:09:57.746Z,14.57
2022-11-14T11:12:43.700Z,14.00
2022-11-14T11:15:31.887Z,14.10
2022-11-14T11:18:05.226Z,14.60
2022-11-14T11:20:40.967Z,13.67
2022-11-14T11:23:20.151Z,13.90
2022-11-14T11:25:58.575Z,13.90
2022-11-14T11:28:25.305Z,14.07
2022-11-14T11:31:04.534Z,14.03
2022-11-14T11:33:33.987Z,13.23
2022-11-14T11:36:05.220Z,13.57
2022-11-14T11:38:34.096Z,14.83
2022-11-14T11:41:15.627Z,14.50
2022-11-14T11:44:00.752Z,13.90
2022-11-14T11:46:51.536Z,14.43
2022-11-14T11:49:38.039Z,14.57
2022-11-14T11:52:24.058Z,15.17
2022-11-14T11:54:59.518Z,14.67
2022-11-14T11:57:36.729Z,15.57
2022-11-14T12:00:14.890Z,15.83
2022-11-14T12:02:49.475Z,14.63
2022-11-14T12:06:02.153Z,14.83
2022-11-14T12:09:12.889Z,14.63
2022-11-14T12:11:43.920Z,15.83
2022-11-14T12:14:28.189Z,15.10
2022-11-14T12:17:20.503Z,15.70
2022-11-14T12:19:58.930Z,15.53
2022-11-14T12:22:49.067Z,16.70
2022-11-14T12:25:39.598Z,16.40
2022-11-14T12:28:24.370Z,15.37
2022-11-14T12:30:57.540Z,15.93
2022-11-14T12:33:26.871Z,15.10
2022-11-14T12:35:57.904Z,15.50
2022-11-14T12:38:27.148Z,16.07
2022-11-14T12:40:57.202Z,15.90
2022-11-14T12:43:41.847Z,16.47
2022-11-14T12:46:11.615Z,15.93
2022-11-14T12:48:40.848Z,15.73
2022-11-14T12:51:25.640Z,15.47
2022-11-14T12:53:54.019Z,14.63
2022-11-14T12:56:26.723Z,15.63
2022-11-14T12:59:17.549Z,15.67
2022-11-14T13:01:53.387Z,16.30
2022-11-14T13:05:17.453Z,15.30
2022-11-14T13:08:02.690Z,14.27
2022-11-14T13:10:40.427Z,15.13
2022-11-14T13:13:33.207Z,15.27
2022-11-14T13:16:21.210Z,14.63
2022-11-14T13:19:20.916Z,14.87
2022-11-14T13:22:12.122Z,14.17
2022-11-14T13:25:03.852Z,13.80
2022-11-14T13:28:05.173Z,13.43
2022-11-14T13:31:00.874Z,15.03
2022-11-14T13:34:00.209Z,15.03
2022-11-14T13:36:34.068Z,14.10
2022-11-14T13:39:38.255Z,14.80
2022-11-14T13:42:28.198Z,13.90
2022-11-14T13:45:22.662Z,14.70
2022-11-14T13:48:07.825Z,15.23
2022-11-14T13:50:40.393Z,14.27
2022-11-14T13:53:17.192Z,14.77
2022-11-14T13:56:02.702Z,14.43
2022-11-14T13:58:47.848Z,14.70
2022-11-14T14:01:52.479Z,14.60
2022-11-14T14:05:05.863Z,14.27
2022-11-14T14:08:01.649Z,14.30
2022-11-14T14:10:42.371Z,15.30
2022-11-14T14:13:26.581Z,14.30
2022-11-14T14:16:01.359Z,15.37
2022-11-14T14:18:44.456Z,15.50
2022-11-14T14:21:22.904Z,14.53
2022-11-14T14:24:13.483Z,14.83
2022-11-14T14:26:58.653Z,14.50
2022-11-14T14:29:30.741Z,14.30
2022-11-14T14:32:17.079Z,13.97
2022-11-14T14:34:44.995Z,15.23
2022-11-14T14:37:18.228Z,14.63
2022-11-14T14:39:56.985Z,13.97
2022-11-14T14:42:24.614Z,13.60
2022-11-14T14:44:51.764Z,14.53
2022-11-14T14:47:41.948Z,14.27
2022-11-14T14:50:19.940Z,13.90
2022-11-14T14:52:47.142Z,13.87
2022-11-14T14:55:50.610Z,14.63
2022-11-14T14:58:23.231Z,14.20
2022-11-14T15:00:57.129Z,13.67
2022-11-14T15:03:26.257Z,14.20
2022-11-14T15:06:01.622Z,14.50
2022-11-14T15:08:30.404Z,14.40
2022-11-14T15:11:00.138Z,13.33
2022-11-14T15:13:29.645Z,13.27
2022-11-14T15:15:57.849Z,13.03
2022-11-14T15:18:28.568Z,13.13
2022-11-14T15:21:15.118Z,13.57
2022-11-14T15:23:42.272Z,13.50
2022-11-14T15:26:17.940Z,13.17
2022-11-14T15:28:45.407Z,13.27
2022-11-14T15:31:22.425Z,13.53
2022-11-14T15:34:29.631Z,12.63
2022-11-14T15:37:21.070Z,13.07
2022-11-14T15:39:48.599Z,13.77
2022-11-14T15:42:24.207Z,13.10
2022-11-14T15:44:51.689Z,13.83
2022-11-14T15:47:25.477Z,13.37
2022-11-14T15:49:59.369Z,12.73
2022-11-14T15:52:29.523Z,12.83
2022-11-14T15:54:56.674Z,13.00
2022-11-14T15:57:23.757Z,13.03
2022-11-14T15:59:50.828Z,13.37
2022-11-14T16:02:29.451Z,14.33
2022-11-14T16:04:57.461Z,13.90
2022-11-14T16:07:24.261Z,13.20
2022-11-14T16:09:51.324Z,13.30
2022-11-14T16:12:18.411Z,13.03
2022-11-14T16:14:45.679Z,13.40
2022-11-14T16:17:17.210Z,12.47
2022-11-14T16:19:44.733Z,13.17
2022-11-14T16:22:15.910Z,13.30
2022-11-14T16:24:43.040Z,13.30
2022-11-14T16:27:09.947Z,13.23
2022-11-14T16:29:37.076Z,12.93
2022-11-14T16:32:03.864Z,12.80
2022-11-14T16:34:30.970Z,12.50
2022-11-14T16:37:00.486Z,13.37
2022-11-14T16:39:27.730Z,12.93
2022-11-14T16:42:01.397Z,13.57
2022-11-14T16:44:28.259Z,13.37
2022-11-14T16:46:55.364Z,14.47
2022-11-14T16:49:22.028Z,13.07
2022-11-14T16:51:50.592Z,13.57
2022-11-14T16:54:20.742Z,13.30
2022-11-14T16:56:48.102Z,13.50
2022-11-14T16:59:14.987Z,13.17
2022-11-14T17:01:42.475Z,14.03
2022-11-14T17:04:09.654Z,12.90
2022-11-14T17:06:36.777Z,12.77
2022-11-14T17:09:03.789Z,13.00
2022-11-14T17:11:30.615Z,13.37
2022-11-14T17:13:57.733Z,12.90
2022-11-14T17:16:24.768Z,13.20
2022-11-14T17:18:55.543Z,13.57
2022-11-14T17:21:23.568Z,13.63
2022-11-14T17:23:57.370Z,13.80
2022-11-14T17:26:24.317Z,14.33
2022-11-14T17:28:51.425Z,13.73
2022-11-14T17:31:18.862Z,12.93
2022-11-14T17:33:55.375Z,13.20
2022-11-14T17:36:23.628Z,14.30
2022-11-14T17:38:50.530Z,13.53
2022-11-14T17:41:17.884Z,13.47
2022-11-14T17:43:45.085Z,14.73
2022-11-14T17:46:16.068Z,12.67
2022-11-14T17:48:44.358Z,13.87
2022-11-14T17:51:13.257Z,12.27
2022-11-14T17:53:40.822Z,13.33
2022-11-14T17:56:08.031Z,13.33
2022-11-14T17:58:35.243Z,14.20
2022-11-14T18:01:02.396Z,11.60
2022-11-14T18:03:29.115Z,11.27
2022-11-14T18:06:06.226Z,12.33
2022-11-14T18:08:34.167Z,11.20
2022-11-14T18:11:02.419Z,12.37
2022-11-14T18:13:29.451Z,12.70
2022-11-14T18:16:01.069Z,12.03
2022-11-14T18:18:28.465Z,12.43
2022-11-14T18:20:55.354Z,10.97
2022-11-14T18:23:22.439Z,11.10
2022-11-14T18:25:49.493Z,12.10
2022-11-14T18:28:16.428Z,11.33
2022-11-14T18:30:43.582Z,10.50
2022-11-14T18:33:10.279Z,10.23
2022-11-14T18:35:36.950Z,11.53
2022-11-14T18:38:04.068Z,11.40
2022-11-14T18:40:31.167Z,12.20
2022-11-14T18:42:58.296Z,11.03
2022-11-14T18:45:25.401Z,11.23
2022-11-14T18:47:52.498Z,12.10
2022-11-14T18:50:19.231Z,12.07
2022-11-14T18:52:46.282Z,11.23
2022-11-14T18:55:13.397Z,12.37
2022-11-14T18:57:40.465Z,12.37
2022-11-14T19:00:07.912Z,11.73
2022-11-14T19:02:35.061Z,11.43
2022-11-14T19:05:01.839Z,10.60
2022-11-14T19:07:30.162Z,10.73
2022-11-14T19:09:57.301Z,11.07
2022-11-14T19:12:24.868Z,10.17
2022-11-14T19:14:52.941Z,10.93
2022-11-14T19:17:23.855Z,9.93
2022-11-14T19:19:53.383Z,10.20
2022-11-14T19:22:21.032Z,10.00
2022-11-14T19:24:48.101Z,11.40
2022-11-14T19:27:15.816Z,10.70
2022-11-14T19:29:42.533Z,10.10
2022-11-14T19:32:09.277Z,10.53
2022-11-14T19:34:36.333Z,10.17
2022-11-14T19:37:03.158Z,10.83
2022-11-14T19:39:30.631Z,10.30
2022-11-14T19:41:57.296Z,10.13
2022-11-14T19:44:24.400Z,10.37
2022-11-14T19:46:51.526Z,10.80
2022-11-14T19:49:18.592Z,10.63
2022-11-14T19:51:45.807Z,9.93
2022-11-14T19:54:12.888Z,10.50
2022-11-14T19:56:40.193Z,9.97
2022-11-14T19:59:13.768Z,9.30
2022-11-14T20:01:42.231Z,9.80
2022-11-14T20:04:12.140Z,10.03
2022-11-14T20:06:40.113Z,9.90
2022-11-14T20:09:09.158Z,9.17
2022-11-14T20:11:36.551Z,9.77
2022-11-14T20:14:05.504Z,8.90
2022-11-14T20:16:35.058Z,9.30
2022-11-14T20:19:02.513Z,9.20
2022-11-14T20:21:31.751Z,9.60
2022-11-14T20:23:59.028Z,9.53
2022-11-14T20:26:26.259Z,8.93
2022-11-14T20:28:53.969Z,9.20
2022-11-14T20:31:29.847Z,9.87
2022-11-14T20:33:57.139Z,9.87
2022-11-14T20:36:32.067Z,9.50
2022-11-14T20:39:05.985Z,9.43
2022-11-14T20:41:33.545Z,8.67
2022-11-14T20:44:01.997Z,9.27
2022-11-14T20:46:29.607Z,9.10
2022-11-14T20:48:56.992Z,8.40
2022-11-14T20:51:25.652Z,8.30
2022-11-14T20:53:55.042Z,8.80
2022-11-14T20:56:22.735Z,8.37
2022-11-14T20:58:56.200Z,9.17
2022-11-14T21:01:23.378Z,9.00
2022-11-14T21:03:50.235Z,8.93
2022-11-14T21:06:17.974Z,8.57
2022-11-14T21:08:44.715Z,8.20
2022-11-14T21:11:14.131Z,7.87
2022-11-14T21:13:56.525Z,8.67
2022-11-14T21:16:38.756Z,8.17
2022-11-14T21:19:07.529Z,7.77
2022-11-14T21:21:36.179Z,8.37
2022-11-14T21:24:03.162Z,8.43
2022-11-14T21:26:36.199Z,8.53
2022-11-14T21:29:06.046Z,8.03
2022-11-14T21:31:37.723Z,8.87
2022-11-14T21:34:12.984Z,8.40
2022-11-14T21:36:47.309Z,7.50
2022-11-14T21:39:16.395Z,8.90
2022-11-14T21:41:45.561Z,8.83
2022-11-14T21:44:14.710Z,8.40
2022-11-14T21:46:41.779Z,8.93
2022-11-14T21:49:08.986Z,8.17
2022-11-14T21:51:36.094Z,9.60
2022-11-14T21:54:02.892Z,8.27
2022-11-14T21:56:31.666Z,8.53
2022-11-14T21:59:21.336Z,7.90
2022-11-14T22:02:08.257Z,7.70
2022-11-14T22:04:36.028Z,7.93
2022-11-14T22:07:04.862Z,7.70
2022-11-14T22:09:32.509Z,7.70
2022-11-14T22:11:59.896Z,7.20
2022-11-14T22:14:27.225Z,7.63
2022-11-14T22:16:54.298Z,7.80
2022-11-14T22:19:21.587Z,8.30
2022-11-14T22:21:48.651Z,7.53
2022-11-14T22:24:15.308Z,7.80
2022-11-14T22:26:41.972Z,6.93
2022-11-14T22:29:09.167Z,8.30
2022-11-14T22:31:37.427Z,7.30
2022-11-14T22:34:04.387Z,7.10
2022-11-14T22:36:31.446Z,7.07
2022-11-14T22:38:58.135Z,8.33
2022-11-14T22:41:32.639Z,7.37
2022-11-14T22:44:00.353Z,7.63
2022-11-14T22:46:27.807Z,7.80
2022-11-14T22:48:55.359Z,7.63
2022-11-14T22:51:24.313Z,7.60
2022-11-14T22:53:53.718Z,7.10
2022-11-14T22:56:22.835Z,7.10
2022-11-14T22:58:49.981Z,6.97
2022-11-14T23:01:22.722Z,7.23
2022-11-14T23:04:02.977Z,7.60
2022-11-14T23:06:31.297Z,8.73
2022-11-14T23:08:58.653Z,8.03
2022-11-14T23:11:27.949Z,7.67
2022-11-14T23:13:56.155Z,8.77
2022-11-14T23:16:31.242Z,8.63
2022-11-14T23:19:00.639Z,8.70
2022-11-14T23:21:33.979Z,7.90
2022-11-14T23:24:04.183Z,7.50
2022-11-14T23:26:32.411Z,8.23
2022-11-14T23:28:59.601Z,8.40
2022-11-14T23:31:26.978Z,8.00
2022-11-14T23:33:55.142Z,8.13
2022-11-14T23:36:22.263Z,7.30
2022-11-14T23:38:49.249Z,7.80
2022-11-14T23:41:19.400Z,7.47
2022-11-14T23:43:46.802Z,7.83
2022-11-14T23:46:14.094Z,7.50
2022-11-14T23:48:40.929Z,7.13
2022-11-14T23:51:08.071Z,7.80
2022-11-14T23:53:34.789Z,8.00
2022-11-14T23:56:02.279Z,7.53
2022-11-14T23:58:30.160Z,8.27
